Aeroporto :
LOGIN :

Iscrizione | Disclaimer

   EN    FR    IT 

 










Sommario :    VFR   VFR Marginale   IFR   IFR Intensivo   IFR Molto Intensivo
Visibilità : 
Base nubi : 
>= 8 km
>= 3000ft
5 / 8 km
1000 / 3000 ft
1500m / 5 km
500 / 1000 ft
800 / 1500m
200 / 500 ft
< 800m
< 200 ft
Simboli :   Temporali  Nebbia  Neve Forte  Precipitazioni Forti  Vento > 20 kt
SIGMETs :   Varie  Temporali  Ghiacco  Turbolenza  Onda orograficha  Ceneri Vulcaniche






- Altitudine del aeroporto : 499 ft
- Codice IATA : TLS


LFBO - Toulouse / Blagnac

ULTIMO METAR :
  • 211630Z AUTO 31008KT 9999 OVC029 12/06 Q1031 NOSIG

METARs OBSOLETI :
  • 211600Z AUTO 32006KT 300V010 9999 OVC030 12/07 Q1031 NOSIG
  • 211530Z AUTO 33009KT 9999 FEW021 OVC030 12/08 Q1031 NOSIG
  • 211500Z AUTO 34010KT 290V020 9999 FEW020 SCT027 OVC032 12/08 Q1031 NOSIG
  • 211430Z AUTO 32005KT 290V360 9999 SCT017 SCT022 OVC032 12/08 Q1031 NOSIG
  • 211400Z AUTO 32006KT 290V360 9999 FEW011 BKN018 BKN028 12/08 Q1031 NOSIG

TAF AMD TAF LFBO
Valido dal 21 a 13 ore il 22 a 18 ore UTC


211319Z 2113/2218 28007KT 9999 BKN010
BECMG 2113/2115 34008KT BKN017
BECMG 2116/2118 BKN035
BECMG 2119/2121 VRB02KT CAVOK
TEMPO 2200/2205 4000 BR
PROB30
TEMPO 2205/2211 2000 BR OVC002
PROB40
TEMPO 2213/2217 36005KT
ATIS : +33 5 62 74 66 36



MetMap, La meteo Aeronautica in un colpo d'occhio ! - Copyright ORBIFLY Dicembre 2007 - Disclaimer

ORBIFLY MET'MAP TEAM :

Programmazione e sviluppo : Alexandra Zaïnal
Concezione : Baudouin d'Aumeries
Aiuto per la programmazione : Marc-Olivier Méhu
Supporto tecnico e logistico : Manuel Goepfert
Aiuto per la traduzione : Arnaldo La Scala

Contatto : metmap@orbifly.com




FONTI E CREDITI :

   NOAA